sensor_id;sensor_type;location;lat;lon;timestamp;P1;durP1;ratioP1;P2;durP2;ratioP2
34765;SDS011;20984;43.508;1.504;2023-02-15T00:02:16;14.05;;;10.15;;
34765;SDS011;20984;43.508;1.504;2023-02-15T00:04:44;14.32;;;9.95;;
34765;SDS011;20984;43.508;1.504;2023-02-15T00:07:14;13.93;;;9.00;;
34765;SDS011;20984;43.508;1.504;2023-02-15T00:09:40;18.55;;;10.27;;
34765;SDS011;20984;43.508;1.504;2023-02-15T00:12:06;16.13;;;10.43;;
34765;SDS011;20984;43.508;1.504;2023-02-15T00:14:33;10.25;;;8.93;;
34765;SDS011;20984;43.508;1.504;2023-02-15T00:16:59;15.55;;;10.00;;
34765;SDS011;20984;43.508;1.504;2023-02-15T00:19:24;16.38;;;10.13;;
34765;SDS011;20984;43.508;1.504;2023-02-15T00:21:50;17.15;;;11.43;;
34765;SDS011;20984;43.508;1.504;2023-02-15T00:24:17;19.73;;;10.05;;
34765;SDS011;20984;43.508;1.504;2023-02-15T00:26:44;16.23;;;9.65;;
34765;SDS011;20984;43.508;1.504;2023-02-15T00:29:11;19.05;;;10.38;;
34765;SDS011;20984;43.508;1.504;2023-02-15T00:31:37;15.40;;;9.88;;
34765;SDS011;20984;43.508;1.504;2023-02-15T00:34:06;15.95;;;10.43;;
34765;SDS011;20984;43.508;1.504;2023-02-15T00:36:35;15.68;;;10.55;;
34765;SDS011;20984;43.508;1.504;2023-02-15T00:39:01;18.15;;;10.30;;
34765;SDS011;20984;43.508;1.504;2023-02-15T00:41:27;16.90;;;9.65;;
34765;SDS011;20984;43.508;1.504;2023-02-15T00:43:53;16.52;;;10.10;;
34765;SDS011;20984;43.508;1.504;2023-02-15T00:46:18;17.35;;;11.75;;
34765;SDS011;20984;43.508;1.504;2023-02-15T00:48:44;15.75;;;10.35;;
34765;SDS011;20984;43.508;1.504;2023-02-15T00:51:10;14.55;;;11.07;;
34765;SDS011;20984;43.508;1.504;2023-02-15T00:53:35;17.40;;;10.02;;
34765;SDS011;20984;43.508;1.504;2023-02-15T00:56:01;16.73;;;10.68;;
34765;SDS011;20984;43.508;1.504;2023-02-15T00:58:27;15.52;;;10.35;;
34765;SDS011;20984;43.508;1.504;2023-02-15T01:00:52;14.02;;;11.52;;
34765;SDS011;20984;43.508;1.504;2023-02-15T01:03:19;15.50;;;10.38;;
34765;SDS011;20984;43.508;1.504;2023-02-15T01:05:46;31.33;;;11.88;;
34765;SDS011;20984;43.508;1.504;2023-02-15T01:08:13;17.48;;;11.05;;
34765;SDS011;20984;43.508;1.504;2023-02-15T01:10:39;16.42;;;10.82;;
34765;SDS011;20984;43.508;1.504;2023-02-15T01:13:05;17.77;;;10.13;;
34765;SDS011;20984;43.508;1.504;2023-02-15T01:15:30;16.88;;;11.07;;
34765;SDS011;20984;43.508;1.504;2023-02-15T01:17:58;15.90;;;10.40;;
34765;SDS011;20984;43.508;1.504;2023-02-15T01:20:25;15.32;;;10.70;;
34765;SDS011;20984;43.508;1.504;2023-02-15T01:22:53;20.08;;;11.95;;
34765;SDS011;20984;43.508;1.504;2023-02-15T01:25:20;17.52;;;11.30;;
34765;SDS011;20984;43.508;1.504;2023-02-15T01:27:46;16.50;;;10.68;;
34765;SDS011;20984;43.508;1.504;2023-02-15T01:30:13;22.27;;;11.88;;
34765;SDS011;20984;43.508;1.504;2023-02-15T01:32:40;23.88;;;10.63;;
34765;SDS011;20984;43.508;1.504;2023-02-15T01:35:07;18.15;;;11.43;;
34765;SDS011;20984;43.508;1.504;2023-02-15T01:37:33;20.40;;;10.63;;
34765;SDS011;20984;43.508;1.504;2023-02-15T01:40:00;21.50;;;12.05;;
34765;SDS011;20984;43.508;1.504;2023-02-15T01:42:26;19.42;;;11.93;;
34765;SDS011;20984;43.508;1.504;2023-02-15T01:44:54;15.85;;;11.43;;
34765;SDS011;20984;43.508;1.504;2023-02-15T01:47:25;21.95;;;11.20;;
34765;SDS011;20984;43.508;1.504;2023-02-15T01:53:07;19.33;;;11.60;;
34765;SDS011;20984;43.508;1.504;2023-02-15T01:58:19;14.57;;;10.25;;
34765;SDS011;20984;43.508;1.504;2023-02-15T02:00:47;22.63;;;11.70;;
34765;SDS011;20984;43.508;1.504;2023-02-15T02:03:13;17.00;;;11.60;;
34765;SDS011;20984;43.508;1.504;2023-02-15T02:05:39;22.27;;;12.40;;
34765;SDS011;20984;43.508;1.504;2023-02-15T02:08:06;15.27;;;11.25;;
34765;SDS011;20984;43.508;1.504;2023-02-15T02:10:34;18.05;;;10.38;;
34765;SDS011;20984;43.508;1.504;2023-02-15T02:13:02;19.52;;;12.77;;
34765;SDS011;20984;43.508;1.504;2023-02-15T02:42:35;17.00;;;11.45;;
34765;SDS011;20984;43.508;1.504;2023-02-15T02:45:15;17.90;;;11.90;;
34765;SDS011;20984;43.508;1.504;2023-02-15T02:47:54;24.45;;;13.02;;
34765;SDS011;20984;43.508;1.504;2023-02-15T02:50:29;17.17;;;12.35;;
34765;SDS011;20984;43.508;1.504;2023-02-15T02:52:56;23.95;;;11.13;;
34765;SDS011;20984;43.508;1.504;2023-02-15T02:55:30;20.45;;;12.55;;
34765;SDS011;20984;43.508;1.504;2023-02-15T03:01:08;24.23;;;12.52;;
34765;SDS011;20984;43.508;1.504;2023-02-15T03:03:40;20.65;;;12.52;;
34765;SDS011;20984;43.508;1.504;2023-02-15T03:06:30;19.70;;;12.52;;
34765;SDS011;20984;43.508;1.504;2023-02-15T03:09:14;18.13;;;11.88;;
34765;SDS011;20984;43.508;1.504;2023-02-15T03:11:46;20.13;;;11.73;;
34765;SDS011;20984;43.508;1.504;2023-02-15T03:14:13;17.25;;;12.95;;
34765;SDS011;20984;43.508;1.504;2023-02-15T03:16:40;18.08;;;12.23;;
34765;SDS011;20984;43.508;1.504;2023-02-15T03:19:12;19.48;;;12.43;;
34765;SDS011;20984;43.508;1.504;2023-02-15T03:21:44;23.58;;;11.82;;
34765;SDS011;20984;43.508;1.504;2023-02-15T03:24:22;19.90;;;12.93;;
34765;SDS011;20984;43.508;1.504;2023-02-15T03:26:50;19.52;;;12.82;;
34765;SDS011;20984;43.508;1.504;2023-02-15T03:29:17;17.30;;;13.63;;
34765;SDS011;20984;43.508;1.504;2023-02-15T03:31:46;17.42;;;11.73;;
34765;SDS011;20984;43.508;1.504;2023-02-15T03:34:16;19.30;;;13.48;;
34765;SDS011;20984;43.508;1.504;2023-02-15T03:42:28;19.20;;;12.20;;
34765;SDS011;20984;43.508;1.504;2023-02-15T03:45:02;19.13;;;12.53;;
34765;SDS011;20984;43.508;1.504;2023-02-15T03:47:37;18.40;;;12.20;;
34765;SDS011;20984;43.508;1.504;2023-02-15T03:52:57;18.23;;;13.40;;
34765;SDS011;20984;43.508;1.504;2023-02-15T03:55:25;25.25;;;13.23;;
34765;SDS011;20984;43.508;1.504;2023-02-15T03:57:52;16.85;;;13.10;;
34765;SDS011;20984;43.508;1.504;2023-02-15T04:00:37;28.27;;;14.00;;
34765;SDS011;20984;43.508;1.504;2023-02-15T04:03:31;23.23;;;14.30;;
34765;SDS011;20984;43.508;1.504;2023-02-15T04:06:03;19.52;;;13.38;;
34765;SDS011;20984;43.508;1.504;2023-02-15T04:08:29;20.42;;;13.48;;
34765;SDS011;20984;43.508;1.504;2023-02-15T04:11:13;22.25;;;13.50;;
34765;SDS011;20984;43.508;1.504;2023-02-15T04:13:38;27.23;;;15.07;;
34765;SDS011;20984;43.508;1.504;2023-02-15T04:16:04;22.13;;;12.93;;
34765;SDS011;20984;43.508;1.504;2023-02-15T04:18:31;17.48;;;13.30;;
34765;SDS011;20984;43.508;1.504;2023-02-15T04:21:27;22.85;;;13.13;;
34765;SDS011;20984;43.508;1.504;2023-02-15T04:24:14;23.00;;;14.70;;
34765;SDS011;20984;43.508;1.504;2023-02-15T04:26:58;19.83;;;13.80;;
34765;SDS011;20984;43.508;1.504;2023-02-15T04:29:25;22.58;;;14.00;;
34765;SDS011;20984;43.508;1.504;2023-02-15T04:31:52;27.65;;;14.38;;
34765;SDS011;20984;43.508;1.504;2023-02-15T04:34:19;18.92;;;13.00;;
34765;SDS011;20984;43.508;1.504;2023-02-15T04:36:45;23.45;;;15.20;;
34765;SDS011;20984;43.508;1.504;2023-02-15T04:39:14;20.35;;;14.80;;
34765;SDS011;20984;43.508;1.504;2023-02-15T04:41:40;19.13;;;13.57;;
34765;SDS011;20984;43.508;1.504;2023-02-15T04:44:06;21.27;;;14.77;;
34765;SDS011;20984;43.508;1.504;2023-02-15T04:46:32;22.17;;;14.02;;
34765;SDS011;20984;43.508;1.504;2023-02-15T04:48:58;25.52;;;15.07;;
34765;SDS011;20984;43.508;1.504;2023-02-15T04:51:23;23.80;;;14.48;;
34765;SDS011;20984;43.508;1.504;2023-02-15T04:53:49;24.05;;;14.73;;
34765;SDS011;20984;43.508;1.504;2023-02-15T04:56:17;27.70;;;14.93;;
34765;SDS011;20984;43.508;1.504;2023-02-15T04:58:43;24.17;;;14.57;;
34765;SDS011;20984;43.508;1.504;2023-02-15T05:01:09;26.55;;;16.90;;
34765;SDS011;20984;43.508;1.504;2023-02-15T05:03:35;26.63;;;14.70;;
34765;SDS011;20984;43.508;1.504;2023-02-15T05:06:01;19.73;;;14.48;;
34765;SDS011;20984;43.508;1.504;2023-02-15T05:08:28;21.70;;;14.80;;
34765;SDS011;20984;43.508;1.504;2023-02-15T05:10:53;23.63;;;14.57;;
34765;SDS011;20984;43.508;1.504;2023-02-15T05:13:19;24.25;;;14.55;;
34765;SDS011;20984;43.508;1.504;2023-02-15T05:15:48;23.00;;;15.00;;
34765;SDS011;20984;43.508;1.504;2023-02-15T05:18:15;23.48;;;16.42;;
34765;SDS011;20984;43.508;1.504;2023-02-15T05:20:42;27.25;;;14.52;;
34765;SDS011;20984;43.508;1.504;2023-02-15T05:23:08;27.20;;;15.57;;
34765;SDS011;20984;43.508;1.504;2023-02-15T05:25:34;24.27;;;14.75;;
34765;SDS011;20984;43.508;1.504;2023-02-15T05:28:18;18.80;;;14.48;;
34765;SDS011;20984;43.508;1.504;2023-02-15T05:30:50;21.42;;;15.82;;
34765;SDS011;20984;43.508;1.504;2023-02-15T05:33:24;24.02;;;14.90;;
34765;SDS011;20984;43.508;1.504;2023-02-15T05:35:50;19.17;;;14.05;;
34765;SDS011;20984;43.508;1.504;2023-02-15T05:38:16;18.08;;;14.02;;
34765;SDS011;20984;43.508;1.504;2023-02-15T05:40:42;21.58;;;13.48;;
34765;SDS011;20984;43.508;1.504;2023-02-15T05:43:07;21.33;;;14.48;;
34765;SDS011;20984;43.508;1.504;2023-02-15T05:45:33;22.58;;;14.30;;
34765;SDS011;20984;43.508;1.504;2023-02-15T05:47:59;20.17;;;13.27;;
34765;SDS011;20984;43.508;1.504;2023-02-15T05:50:25;20.42;;;13.95;;
34765;SDS011;20984;43.508;1.504;2023-02-15T05:52:51;21.38;;;13.18;;
34765;SDS011;20984;43.508;1.504;2023-02-15T05:55:18;18.52;;;13.75;;
34765;SDS011;20984;43.508;1.504;2023-02-15T05:57:44;25.83;;;14.15;;
34765;SDS011;20984;43.508;1.504;2023-02-15T06:00:10;32.47;;;14.65;;
34765;SDS011;20984;43.508;1.504;2023-02-15T06:02:37;16.05;;;13.60;;
34765;SDS011;20984;43.508;1.504;2023-02-15T06:05:03;22.75;;;14.00;;
34765;SDS011;20984;43.508;1.504;2023-02-15T06:07:30;24.35;;;13.32;;
34765;SDS011;20984;43.508;1.504;2023-02-15T06:09:56;21.67;;;14.27;;
34765;SDS011;20984;43.508;1.504;2023-02-15T06:12:22;16.92;;;12.48;;
34765;SDS011;20984;43.508;1.504;2023-02-15T06:14:48;28.48;;;15.52;;
34765;SDS011;20984;43.508;1.504;2023-02-15T06:17:14;18.83;;;12.73;;
34765;SDS011;20984;43.508;1.504;2023-02-15T06:19:41;19.27;;;12.27;;
34765;SDS011;20984;43.508;1.504;2023-02-15T06:22:08;17.38;;;11.65;;
34765;SDS011;20984;43.508;1.504;2023-02-15T06:24:34;18.90;;;12.07;;
34765;SDS011;20984;43.508;1.504;2023-02-15T06:26:59;17.70;;;12.50;;
34765;SDS011;20984;43.508;1.504;2023-02-15T06:29:25;16.27;;;11.73;;
34765;SDS011;20984;43.508;1.504;2023-02-15T06:31:51;18.50;;;12.73;;
34765;SDS011;20984;43.508;1.504;2023-02-15T06:34:17;19.98;;;11.90;;
34765;SDS011;20984;43.508;1.504;2023-02-15T06:36:43;22.88;;;12.18;;
34765;SDS011;20984;43.508;1.504;2023-02-15T06:39:08;17.75;;;11.65;;
34765;SDS011;20984;43.508;1.504;2023-02-15T06:41:34;18.00;;;11.48;;
34765;SDS011;20984;43.508;1.504;2023-02-15T06:44:00;18.85;;;12.95;;
34765;SDS011;20984;43.508;1.504;2023-02-15T06:46:26;15.60;;;11.60;;
34765;SDS011;20984;43.508;1.504;2023-02-15T06:48:52;19.77;;;11.60;;
34765;SDS011;20984;43.508;1.504;2023-02-15T06:51:17;20.85;;;12.48;;
34765;SDS011;20984;43.508;1.504;2023-02-15T06:53:43;20.85;;;11.55;;
34765;SDS011;20984;43.508;1.504;2023-02-15T06:56:09;20.05;;;11.38;;
34765;SDS011;20984;43.508;1.504;2023-02-15T06:58:37;20.42;;;11.27;;
34765;SDS011;20984;43.508;1.504;2023-02-15T07:01:06;18.92;;;12.02;;
34765;SDS011;20984;43.508;1.504;2023-02-15T07:03:34;18.33;;;12.07;;
34765;SDS011;20984;43.508;1.504;2023-02-15T07:06:00;16.13;;;12.32;;
34765;SDS011;20984;43.508;1.504;2023-02-15T07:08:28;17.52;;;12.60;;
34765;SDS011;20984;43.508;1.504;2023-02-15T07:10:55;20.30;;;11.57;;
34765;SDS011;20984;43.508;1.504;2023-02-15T07:13:44;21.63;;;13.18;;
34765;SDS011;20984;43.508;1.504;2023-02-15T07:16:10;23.55;;;16.90;;
34765;SDS011;20984;43.508;1.504;2023-02-15T07:18:35;41.33;;;29.73;;
34765;SDS011;20984;43.508;1.504;2023-02-15T07:21:01;23.60;;;18.48;;
34765;SDS011;20984;43.508;1.504;2023-02-15T07:23:27;22.38;;;15.05;;
34765;SDS011;20984;43.508;1.504;2023-02-15T07:25:57;70.15;;;45.90;;
34765;SDS011;20984;43.508;1.504;2023-02-15T07:28:23;17.60;;;13.07;;
34765;SDS011;20984;43.508;1.504;2023-02-15T07:30:49;22.58;;;12.73;;
34765;SDS011;20984;43.508;1.504;2023-02-15T07:33:15;17.42;;;11.40;;
34765;SDS011;20984;43.508;1.504;2023-02-15T07:35:53;15.13;;;11.38;;
34765;SDS011;20984;43.508;1.504;2023-02-15T07:38:22;16.00;;;11.43;;
34765;SDS011;20984;43.508;1.504;2023-02-15T07:40:49;21.90;;;11.68;;
34765;SDS011;20984;43.508;1.504;2023-02-15T07:43:15;15.75;;;10.43;;
34765;SDS011;20984;43.508;1.504;2023-02-15T07:45:42;16.98;;;10.93;;
34765;SDS011;20984;43.508;1.504;2023-02-15T07:48:07;15.10;;;11.00;;
34765;SDS011;20984;43.508;1.504;2023-02-15T07:50:33;15.02;;;9.90;;
34765;SDS011;20984;43.508;1.504;2023-02-15T07:53:03;13.80;;;10.38;;
34765;SDS011;20984;43.508;1.504;2023-02-15T07:55:29;15.45;;;10.15;;
34765;SDS011;20984;43.508;1.504;2023-02-15T07:57:55;17.17;;;10.52;;
34765;SDS011;20984;43.508;1.504;2023-02-15T08:00:21;15.95;;;10.05;;
34765;SDS011;20984;43.508;1.504;2023-02-15T08:02:53;15.00;;;9.00;;
34765;SDS011;20984;43.508;1.504;2023-02-15T08:05:39;13.85;;;9.77;;
34765;SDS011;20984;43.508;1.504;2023-02-15T08:08:07;17.05;;;9.95;;
34765;SDS011;20984;43.508;1.504;2023-02-15T08:10:33;14.30;;;9.52;;
34765;SDS011;20984;43.508;1.504;2023-02-15T08:13:18;14.88;;;9.63;;
34765;SDS011;20984;43.508;1.504;2023-02-15T08:15:51;16.60;;;10.23;;
34765;SDS011;20984;43.508;1.504;2023-02-15T08:18:17;12.55;;;9.93;;
34765;SDS011;20984;43.508;1.504;2023-02-15T08:20:48;16.52;;;10.48;;
34765;SDS011;20984;43.508;1.504;2023-02-15T08:23:14;22.60;;;10.13;;
34765;SDS011;20984;43.508;1.504;2023-02-15T08:25:40;22.55;;;10.07;;
34765;SDS011;20984;43.508;1.504;2023-02-15T08:28:05;15.43;;;10.48;;
34765;SDS011;20984;43.508;1.504;2023-02-15T08:30:31;17.77;;;9.40;;
34765;SDS011;20984;43.508;1.504;2023-02-15T08:32:57;15.98;;;9.52;;
34765;SDS011;20984;43.508;1.504;2023-02-15T08:35:23;13.85;;;9.38;;
34765;SDS011;20984;43.508;1.504;2023-02-15T08:37:49;12.48;;;8.65;;
34765;SDS011;20984;43.508;1.504;2023-02-15T08:40:14;14.25;;;9.23;;
34765;SDS011;20984;43.508;1.504;2023-02-15T08:42:41;13.48;;;10.52;;
34765;SDS011;20984;43.508;1.504;2023-02-15T08:45:06;19.58;;;10.32;;
34765;SDS011;20984;43.508;1.504;2023-02-15T08:47:32;15.05;;;8.80;;
34765;SDS011;20984;43.508;1.504;2023-02-15T08:49:58;13.82;;;9.32;;
34765;SDS011;20984;43.508;1.504;2023-02-15T08:52:24;12.18;;;8.60;;
34765;SDS011;20984;43.508;1.504;2023-02-15T08:54:49;13.18;;;8.82;;
34765;SDS011;20984;43.508;1.504;2023-02-15T08:57:15;14.30;;;9.65;;
34765;SDS011;20984;43.508;1.504;2023-02-15T08:59:41;19.45;;;9.23;;
34765;SDS011;20984;43.508;1.504;2023-02-15T09:02:09;12.55;;;8.95;;
34765;SDS011;20984;43.508;1.504;2023-02-15T09:04:35;14.52;;;8.43;;
34765;SDS011;20984;43.508;1.504;2023-02-15T09:07:01;9.10;;;7.35;;
34765;SDS011;20984;43.508;1.504;2023-02-15T09:09:29;10.82;;;8.60;;
34765;SDS011;20984;43.508;1.504;2023-02-15T09:11:56;20.27;;;9.00;;
34765;SDS011;20984;43.508;1.504;2023-02-15T09:14:22;19.25;;;9.00;;
34765;SDS011;20984;43.508;1.504;2023-02-15T09:16:51;11.35;;;7.97;;
34765;SDS011;20984;43.508;1.504;2023-02-15T09:19:18;11.65;;;8.13;;
34765;SDS011;20984;43.508;1.504;2023-02-15T09:21:45;15.63;;;8.20;;
34765;SDS011;20984;43.508;1.504;2023-02-15T09:24:11;7.72;;;6.50;;
34765;SDS011;20984;43.508;1.504;2023-02-15T09:26:40;10.02;;;7.57;;
34765;SDS011;20984;43.508;1.504;2023-02-15T09:29:10;11.70;;;7.17;;
34765;SDS011;20984;43.508;1.504;2023-02-15T09:31:37;9.23;;;7.15;;
34765;SDS011;20984;43.508;1.504;2023-02-15T09:34:09;9.25;;;7.53;;
34765;SDS011;20984;43.508;1.504;2023-02-15T09:36:36;17.50;;;7.30;;
34765;SDS011;20984;43.508;1.504;2023-02-15T09:39:06;8.77;;;7.18;;
34765;SDS011;20984;43.508;1.504;2023-02-15T09:49:52;16.63;;;7.10;;
34765;SDS011;20984;43.508;1.504;2023-02-15T09:57:40;12.57;;;7.20;;
34765;SDS011;20984;43.508;1.504;2023-02-15T10:08:41;11.90;;;8.02;;
34765;SDS011;20984;43.508;1.504;2023-02-15T10:11:20;17.90;;;7.90;;
34765;SDS011;20984;43.508;1.504;2023-02-15T10:27:50;13.93;;;7.65;;
34765;SDS011;20984;43.508;1.504;2023-02-15T10:30:22;29.58;;;8.50;;
34765;SDS011;20984;43.508;1.504;2023-02-15T10:33:00;9.85;;;7.55;;
34765;SDS011;20984;43.508;1.504;2023-02-15T10:35:43;13.23;;;6.78;;
34765;SDS011;20984;43.508;1.504;2023-02-15T10:58:10;9.32;;;6.68;;
34765;SDS011;20984;43.508;1.504;2023-02-15T11:00:58;11.95;;;7.28;;
34765;SDS011;20984;43.508;1.504;2023-02-15T11:06:35;10.23;;;6.32;;
34765;SDS011;20984;43.508;1.504;2023-02-15T11:09:07;8.48;;;6.65;;
34765;SDS011;20984;43.508;1.504;2023-02-15T11:11:38;8.88;;;6.18;;
34765;SDS011;20984;43.508;1.504;2023-02-15T11:14:15;7.53;;;5.68;;
34765;SDS011;20984;43.508;1.504;2023-02-15T11:16:49;12.47;;;6.33;;
34765;SDS011;20984;43.508;1.504;2023-02-15T11:21:54;8.73;;;5.25;;
34765;SDS011;20984;43.508;1.504;2023-02-15T11:24:26;6.55;;;5.15;;
34765;SDS011;20984;43.508;1.504;2023-02-15T11:26:54;6.60;;;4.75;;
34765;SDS011;20984;43.508;1.504;2023-02-15T11:29:34;6.53;;;5.15;;
34765;SDS011;20984;43.508;1.504;2023-02-15T11:32:12;7.43;;;6.55;;
34765;SDS011;20984;43.508;1.504;2023-02-15T11:34:56;7.72;;;6.10;;
34765;SDS011;20984;43.508;1.504;2023-02-15T11:37:37;11.45;;;6.00;;
34765;SDS011;20984;43.508;1.504;2023-02-15T11:40:21;10.57;;;5.70;;
34765;SDS011;20984;43.508;1.504;2023-02-15T11:43:00;6.75;;;5.03;;
34765;SDS011;20984;43.508;1.504;2023-02-15T11:45:46;9.02;;;6.22;;
34765;SDS011;20984;43.508;1.504;2023-02-15T11:48:13;9.32;;;5.63;;
34765;SDS011;20984;43.508;1.504;2023-02-15T11:50:40;12.25;;;5.80;;
34765;SDS011;20984;43.508;1.504;2023-02-15T11:53:11;8.82;;;6.20;;
34765;SDS011;20984;43.508;1.504;2023-02-15T11:55:44;11.57;;;6.32;;
34765;SDS011;20984;43.508;1.504;2023-02-15T12:03:43;10.23;;;6.55;;
34765;SDS011;20984;43.508;1.504;2023-02-15T12:06:22;12.15;;;6.03;;
34765;SDS011;20984;43.508;1.504;2023-02-15T12:11:46;12.77;;;6.60;;
34765;SDS011;20984;43.508;1.504;2023-02-15T12:14:12;14.18;;;6.60;;
34765;SDS011;20984;43.508;1.504;2023-02-15T12:19:18;14.05;;;5.47;;
34765;SDS011;20984;43.508;1.504;2023-02-15T12:22:16;11.48;;;6.20;;
34765;SDS011;20984;43.508;1.504;2023-02-15T12:24:47;7.47;;;6.22;;
34765;SDS011;20984;43.508;1.504;2023-02-15T12:29:55;7.70;;;5.55;;
34765;SDS011;20984;43.508;1.504;2023-02-15T12:32:26;10.93;;;5.63;;
34765;SDS011;20984;43.508;1.504;2023-02-15T12:35:09;8.93;;;5.85;;
34765;SDS011;20984;43.508;1.504;2023-02-15T12:40:21;9.38;;;5.18;;
34765;SDS011;20984;43.508;1.504;2023-02-15T12:42:54;8.02;;;4.65;;
34765;SDS011;20984;43.508;1.504;2023-02-15T12:45:30;5.82;;;4.82;;
34765;SDS011;20984;43.508;1.504;2023-02-15T12:50:41;9.10;;;5.15;;
34765;SDS011;20984;43.508;1.504;2023-02-15T12:53:15;7.57;;;5.77;;
34765;SDS011;20984;43.508;1.504;2023-02-15T12:55:57;8.35;;;6.03;;
34765;SDS011;20984;43.508;1.504;2023-02-15T12:58:27;11.90;;;5.57;;
34765;SDS011;20984;43.508;1.504;2023-02-15T13:03:54;10.10;;;5.60;;
34765;SDS011;20984;43.508;1.504;2023-02-15T13:06:23;13.57;;;6.18;;
34765;SDS011;20984;43.508;1.504;2023-02-15T13:08:51;7.85;;;5.22;;
34765;SDS011;20984;43.508;1.504;2023-02-15T13:11:26;9.20;;;5.43;;
34765;SDS011;20984;43.508;1.504;2023-02-15T13:14:03;7.38;;;5.30;;
34765;SDS011;20984;43.508;1.504;2023-02-15T13:16:41;8.55;;;4.85;;
34765;SDS011;20984;43.508;1.504;2023-02-15T13:19:18;6.68;;;4.50;;
34765;SDS011;20984;43.508;1.504;2023-02-15T13:21:53;13.02;;;5.15;;
34765;SDS011;20984;43.508;1.504;2023-02-15T13:24:23;5.82;;;4.90;;
34765;SDS011;20984;43.508;1.504;2023-02-15T13:27:02;13.77;;;4.90;;
34765;SDS011;20984;43.508;1.504;2023-02-15T13:29:36;8.20;;;5.10;;
34765;SDS011;20984;43.508;1.504;2023-02-15T13:32:10;7.22;;;4.07;;
34765;SDS011;20984;43.508;1.504;2023-02-15T13:34:46;7.95;;;4.82;;
34765;SDS011;20984;43.508;1.504;2023-02-15T14:12:34;8.43;;;4.85;;
34765;SDS011;20984;43.508;1.504;2023-02-15T14:18:03;5.13;;;4.13;;
34765;SDS011;20984;43.508;1.504;2023-02-15T14:21:03;8.55;;;4.25;;
34765;SDS011;20984;43.508;1.504;2023-02-15T14:23:58;10.90;;;5.18;;
34765;SDS011;20984;43.508;1.504;2023-02-15T14:32:11;7.63;;;4.45;;
34765;SDS011;20984;43.508;1.504;2023-02-15T14:34:48;5.38;;;4.40;;
34765;SDS011;20984;43.508;1.504;2023-02-15T14:37:19;5.32;;;4.63;;
34765;SDS011;20984;43.508;1.504;2023-02-15T14:54:10;9.40;;;5.50;;
34765;SDS011;20984;43.508;1.504;2023-02-15T14:59:37;11.13;;;5.75;;
34765;SDS011;20984;43.508;1.504;2023-02-15T15:04:34;10.30;;;4.97;;
34765;SDS011;20984;43.508;1.504;2023-02-15T15:07:08;6.68;;;4.85;;
34765;SDS011;20984;43.508;1.504;2023-02-15T15:10:00;8.93;;;5.28;;
34765;SDS011;20984;43.508;1.504;2023-02-15T15:12:41;7.93;;;4.72;;
34765;SDS011;20984;43.508;1.504;2023-02-15T15:15:39;9.45;;;4.80;;
34765;SDS011;20984;43.508;1.504;2023-02-15T15:18:10;9.27;;;4.40;;
34765;SDS011;20984;43.508;1.504;2023-02-15T15:20:55;6.88;;;4.50;;
34765;SDS011;20984;43.508;1.504;2023-02-15T15:25:48;7.57;;;4.65;;
34765;SDS011;20984;43.508;1.504;2023-02-15T15:31:07;7.95;;;4.90;;
34765;SDS011;20984;43.508;1.504;2023-02-15T15:37:28;7.68;;;5.03;;
34765;SDS011;20984;43.508;1.504;2023-02-15T15:48:31;13.82;;;4.97;;
34765;SDS011;20984;43.508;1.504;2023-02-15T15:54:15;11.10;;;5.25;;
34765;SDS011;20984;43.508;1.504;2023-02-15T15:56:44;8.80;;;5.22;;
34765;SDS011;20984;43.508;1.504;2023-02-15T15:59:26;9.98;;;5.75;;
34765;SDS011;20984;43.508;1.504;2023-02-15T16:01:54;8.73;;;5.15;;
34765;SDS011;20984;43.508;1.504;2023-02-15T16:04:25;9.50;;;5.43;;
34765;SDS011;20984;43.508;1.504;2023-02-15T16:06:56;9.57;;;6.45;;
34765;SDS011;20984;43.508;1.504;2023-02-15T16:09:24;9.98;;;6.53;;
34765;SDS011;20984;43.508;1.504;2023-02-15T16:11:52;7.45;;;5.13;;
34765;SDS011;20984;43.508;1.504;2023-02-15T16:16:56;7.22;;;5.78;;
34765;SDS011;20984;43.508;1.504;2023-02-15T16:19:26;9.60;;;5.50;;
34765;SDS011;20984;43.508;1.504;2023-02-15T16:21:58;9.60;;;5.88;;
34765;SDS011;20984;43.508;1.504;2023-02-15T16:29:31;10.25;;;5.97;;
34765;SDS011;20984;43.508;1.504;2023-02-15T16:32:31;8.52;;;6.15;;
34765;SDS011;20984;43.508;1.504;2023-02-15T16:37:18;10.27;;;5.13;;
34765;SDS011;20984;43.508;1.504;2023-02-15T16:39:48;8.25;;;5.55;;
34765;SDS011;20984;43.508;1.504;2023-02-15T16:42:15;9.55;;;5.72;;
34765;SDS011;20984;43.508;1.504;2023-02-15T16:44:42;9.48;;;5.93;;
34765;SDS011;20984;43.508;1.504;2023-02-15T16:47:15;6.72;;;5.38;;
34765;SDS011;20984;43.508;1.504;2023-02-15T16:49:45;7.63;;;5.40;;
34765;SDS011;20984;43.508;1.504;2023-02-15T16:52:15;9.20;;;6.60;;
34765;SDS011;20984;43.508;1.504;2023-02-15T16:54:52;11.25;;;6.05;;
34765;SDS011;20984;43.508;1.504;2023-02-15T16:57:21;13.88;;;6.45;;
34765;SDS011;20984;43.508;1.504;2023-02-15T16:59:49;10.25;;;6.13;;
34765;SDS011;20984;43.508;1.504;2023-02-15T17:02:24;9.32;;;6.60;;
34765;SDS011;20984;43.508;1.504;2023-02-15T17:05:14;8.93;;;6.70;;
34765;SDS011;20984;43.508;1.504;2023-02-15T17:07:51;9.70;;;6.40;;
34765;SDS011;20984;43.508;1.504;2023-02-15T17:10:35;12.30;;;6.85;;
34765;SDS011;20984;43.508;1.504;2023-02-15T17:13:10;13.15;;;7.07;;
34765;SDS011;20984;43.508;1.504;2023-02-15T17:16:25;10.05;;;5.78;;
34765;SDS011;20984;43.508;1.504;2023-02-15T17:18:52;8.27;;;6.20;;
34765;SDS011;20984;43.508;1.504;2023-02-15T17:21:19;10.15;;;6.93;;
34765;SDS011;20984;43.508;1.504;2023-02-15T17:23:50;11.65;;;7.43;;
34765;SDS011;20984;43.508;1.504;2023-02-15T17:26:23;8.82;;;6.57;;
34765;SDS011;20984;43.508;1.504;2023-02-15T17:31:19;11.05;;;7.97;;
34765;SDS011;20984;43.508;1.504;2023-02-15T17:33:46;15.73;;;8.00;;
34765;SDS011;20984;43.508;1.504;2023-02-15T17:36:25;11.45;;;8.70;;
34765;SDS011;20984;43.508;1.504;2023-02-15T17:41:23;11.02;;;6.90;;
34765;SDS011;20984;43.508;1.504;2023-02-15T17:43:49;9.98;;;7.95;;
34765;SDS011;20984;43.508;1.504;2023-02-15T17:46:15;10.35;;;8.07;;
34765;SDS011;20984;43.508;1.504;2023-02-15T17:48:45;9.00;;;7.80;;
34765;SDS011;20984;43.508;1.504;2023-02-15T17:51:12;11.00;;;7.97;;
34765;SDS011;20984;43.508;1.504;2023-02-15T17:53:39;11.68;;;8.15;;
34765;SDS011;20984;43.508;1.504;2023-02-15T17:56:26;29.77;;;19.20;;
34765;SDS011;20984;43.508;1.504;2023-02-15T17:58:51;22.35;;;14.02;;
34765;SDS011;20984;43.508;1.504;2023-02-15T18:01:17;95.95;;;56.38;;
34765;SDS011;20984;43.508;1.504;2023-02-15T18:04:04;37.00;;;23.08;;
34765;SDS011;20984;43.508;1.504;2023-02-15T18:06:53;17.08;;;11.07;;
34765;SDS011;20984;43.508;1.504;2023-02-15T18:09:38;15.73;;;10.88;;
34765;SDS011;20984;43.508;1.504;2023-02-15T18:14:49;13.45;;;9.75;;
34765;SDS011;20984;43.508;1.504;2023-02-15T18:17:15;15.48;;;11.30;;
34765;SDS011;20984;43.508;1.504;2023-02-15T18:19:45;13.20;;;9.70;;
34765;SDS011;20984;43.508;1.504;2023-02-15T18:22:12;14.93;;;10.43;;
34765;SDS011;20984;43.508;1.504;2023-02-15T18:24:40;19.02;;;11.35;;
34765;SDS011;20984;43.508;1.504;2023-02-15T18:27:06;15.43;;;9.68;;
34765;SDS011;20984;43.508;1.504;2023-02-15T18:29:31;18.20;;;10.45;;
34765;SDS011;20984;43.508;1.504;2023-02-15T18:31:58;14.55;;;12.52;;
34765;SDS011;20984;43.508;1.504;2023-02-15T18:34:35;32.10;;;24.08;;
34765;SDS011;20984;43.508;1.504;2023-02-15T18:37:03;13.52;;;12.00;;
34765;SDS011;20984;43.508;1.504;2023-02-15T18:39:38;13.45;;;10.93;;
34765;SDS011;20984;43.508;1.504;2023-02-15T18:42:17;17.88;;;10.25;;